| time (UTC) | temp F | wind direction | speed MPH | gust MPH | rain 1hr in | rain 24hr in | rain mn in | humidity % | barometer mb |
| 20260508014512 | 93 | 196 | 0.0 | 5.0 | 0.00 | 0.00 | 0.00 | 6 | 1005.4 |
| 20260508013009 | 94 | 268 | 0.0 | 1.0 | 0.00 | 0.00 | 0.00 | 5 | 1005.3 |
| 20260508011510 | 95 | 259 | 0.0 | 4.0 | 0.00 | 0.00 | 0.00 | 5 | 1005.4 |
| 20260508010009 | 95 | 219 | 0.0 | 0.0 | 0.00 | 0.00 | 0.00 | 5 | 1005.4 |
| 20260508004513 | 95 | 67 | 0.0 | 1.0 | 0.00 | 0.00 | 0.00 | 5 | 1005.3 |
| 20260508003006 | 94 | 219 | 0.0 | 1.0 | 0.00 | 0.00 | 0.00 | 5 | 1005.4 |
| 20260508001515 | 95 | 105 | 0.0 | 4.0 | 0.00 | 0.00 | 0.00 | 5 | 1005.4 |
| 20260508000005 | 94 | 72 | 0.0 | 2.0 | 0.00 | 0.00 | 0.00 | 5 | 1005.4 |
| 20260507234503 | 95 | 63 | 0.0 | 5.0 | 0.00 | 0.00 | 0.00 | 4 | 1005.6 |
| 20260507233008 | 95 | 79 | 0.0 | 4.0 | 0.00 | 0.00 | 0.00 | 5 | 1005.6 |
| 20260507231502 | 96 | 200 | 1.0 | 7.0 | 0.00 | 0.00 | 0.00 | 5 | 1005.6 |
| 20260507230001 | 96 | 271 | 0.0 | 3.0 | 0.00 | 0.00 | 0.00 | 5 | 1005.7 |
| 20260507224602 | 95 | 230 | 1.0 | 6.0 | 0.00 | 0.00 | 0.00 | 5 | 1005.8 |
| 20260507223057 | 95 | 236 | 1.0 | 4.0 | 0.00 | 0.00 | 0.00 | 5 | 1005.9 |
| 20260507221555 | 95 | 356 | 1.0 | 4.0 | 0.00 | 0.00 | 0.00 | 6 | 1006.1 |
| 20260507220053 | 94 | 329 | 2.0 | 7.0 | 0.00 | 0.00 | 0.00 | 7 | 1006.4 |
| 20260507214553 | 96 | 12 | 1.0 | 6.0 | 0.00 | 0.00 | 0.00 | 6 | 1006.5 |
| 20260507213048 | 94 | 77 | 1.0 | 0.0 | 0.00 | 0.00 | 0.00 | 7 | 1006.8 |
| 20260507211547 | 94 | 77 | 2.0 | 5.0 | 0.00 | 0.00 | 0.00 | 8 | 1006.9 |
| 20260507210044 | 95 | 23 | 0.0 | 5.0 | 0.00 | 0.00 | 0.00 | 7 | 1007.2 |
| 20260507204545 | 95 | 249 | 0.0 | 7.0 | 0.00 | 0.00 | 0.00 | 8 | 1007.4 |
| 20260507203037 | 93 | 66 | 0.0 | 4.0 | 0.00 | 0.00 | 0.00 | 9 | 1007.6 |
| 20260507201536 | 93 | 107 | 0.0 | 3.0 | 0.00 | 0.00 | 0.00 | 9 | 1007.9 |
| 20260507200032 | 93 | 77 | 1.0 | 5.0 | 0.00 | 0.00 | 0.00 | 9 | 1008.3 |
| 20260507194529 | 92 | 299 | 0.0 | 3.0 | 0.00 | 0.00 | 0.00 | 9 | 1008.5 |
| 20260507193030 | 92 | 77 | 1.0 | 6.0 | 0.00 | 0.00 | 0.00 | 10 | 1008.7 |
| 20260507191522 | 91 | 51 | 0.0 | 4.0 | 0.00 | 0.00 | 0.00 | 10 | 1009.0 |
| 20260507190020 | 90 | 319 | 1.0 | 6.0 | 0.00 | 0.00 | 0.00 | 11 | 1009.2 |
| 20260507184517 | 91 | 66 | 0.0 | 2.0 | 0.00 | 0.00 | 0.00 | 11 | 1009.5 |
| 20260507183015 | 89 | 276 | 0.0 | 4.0 | 0.00 | 0.00 | 0.00 | 12 | 1009.7 |
| 20260507181512 | 89 | 34 | 0.0 | 4.0 | 0.00 | 0.00 | 0.00 | 14 | 1009.9 |
| 20260507180010 | 87 | 243 | 0.0 | 6.0 | 0.00 | 0.00 | 0.00 | 14 | 1010.0 |
| 20260507174507 | 86 | 336 | 0.0 | 3.0 | 0.00 | 0.00 | 0.00 | 16 | 1010.2 |
| 20260507173005 | 86 | 342 | 0.0 | 2.0 | 0.00 | 0.00 | 0.00 | 17 | 1010.3 |
| 20260507171504 | 85 | 94 | 0.0 | 2.0 | 0.00 | 0.00 | 0.00 | 18 | 1010.4 |
| 20260507170101 | 84 | 75 | 0.0 | 2.0 | 0.00 | 0.00 | 0.00 | 18 | 1010.6 |
| 20260507164557 | 83 | 24 | 0.0 | 3.0 | 0.00 | 0.00 | 0.00 | 19 | 1010.7 |
| 20260507163057 | 82 | 303 | 0.0 | 5.0 | 0.00 | 0.00 | 0.00 | 19 | 1010.6 |
| 20260507161551 | 81 | 56 | 0.0 | 4.0 | 0.00 | 0.00 | 0.00 | 20 | 1010.7 |
| 20260507160052 | 80 | 315 | 0.0 | 6.0 | 0.00 | 0.00 | 0.00 | 21 | 1011.0 |
| 20260507154548 | 79 | 104 | 0.0 | 5.0 | 0.00 | 0.00 | 0.00 | 22 | 1011.1 |
| 20260507153051 | 79 | 103 | 0.0 | 3.0 | 0.00 | 0.00 | 0.00 | 22 | 1011.1 |
| 20260507151544 | 79 | 52 | 0.0 | 1.0 | 0.00 | 0.00 | 0.00 | 22 | 1011.2 |
| 20260507150044 | 80 | 207 | 0.0 | 0.0 | 0.00 | 0.00 | 0.00 | 26 | 1011.1 |
| 20260507144542 | 79 | 212 | 0.0 | 0.0 | 0.00 | 0.00 | 0.00 | 25 | 1011.2 |
| 20260507143039 | 75 | 188 | 0.0 | 0.0 | 0.00 | 0.00 | 0.00 | 28 | 1011.3 |
| 20260507141534 | 73 | 155 | 0.0 | 0.0 | 0.00 | 0.00 | 0.00 | 30 | 1011.1 |
| 20260507140032 | 70 | 169 | 0.0 | 0.0 | 0.00 | 0.00 | 0.00 | 33 | 1011.0 |
| 20260507134531 | 67 | 169 | 0.0 | 0.0 | 0.00 | 0.00 | 0.00 | 35 | 1011.0 |
| 20260507133029 | 64 | 169 | 0.0 | 0.0 | 0.00 | 0.00 | 0.00 | 37 | 1010.7 |
| 20260507131535 | 61 | 181 | 0.0 | 0.0 | 0.00 | 0.00 | 0.00 | 41 | 1010.8 |
| 20260507130027 | 58 | 79 | 0.0 | 0.0 | 0.00 | 0.00 | 0.00 | 44 | 1010.7 |
| 20260507124525 | 60 | 140 | 0.0 | 0.0 | 0.00 | 0.00 | 0.00 | 44 | 1010.6 |
| 20260507123024 | 60 | 165 | 0.0 | 0.0 | 0.00 | 0.00 | 0.00 | 44 | 1010.4 |
| 20260507121522 | 60 | 198 | 0.0 | 0.0 | 0.00 | 0.00 | 0.00 | 44 | 1010.3 |
| 20260507120034 | 60 | 179 | 0.0 | 0.0 | 0.00 | 0.00 | 0.00 | 42 | 1010.4 |
| 20260507114520 | 61 | 150 | 0.0 | 0.0 | 0.00 | 0.00 | 0.00 | 42 | 1010.6 |
| 20260507113016 | 61 | 155 | 0.0 | 0.0 | 0.00 | 0.00 | 0.00 | 40 | 1010.7 |
| 20260507111514 | 62 | 155 | 0.0 | 0.0 | 0.00 | 0.00 | 0.00 | 39 | 1010.7 |
| 20260507110013 | 62 | 203 | 0.0 | 0.0 | 0.00 | 0.00 | 0.00 | 39 | 1010.7 |
| 20260507104513 | 62 | 162 | 0.0 | 0.0 | 0.00 | 0.00 | 0.00 | 40 | 1010.7 |
| 20260507103010 | 62 | 203 | 0.0 | 0.0 | 0.00 | 0.00 | 0.00 | 39 | 1010.7 |
| 20260507101508 | 62 | 215 | 0.0 | 0.0 | 0.00 | 0.00 | 0.00 | 38 | 1010.6 |
| 20260507100008 | 63 | 215 | 0.0 | 0.0 | 0.00 | 0.00 | 0.00 | 37 | 1010.8 |
| 20260507094504 | 63 | 215 | 0.0 | 0.0 | 0.00 | 0.00 | 0.00 | 37 | 1010.7 |
| 20260507093101 | 64 | 215 | 0.0 | 0.0 | 0.00 | 0.00 | 0.00 | 36 | 1010.7 |
| 20260507071551 | 71 | 246 | 0.0 | 0.0 | 0.00 | 0.00 | 0.00 | 25 | 1011.1 |
| 20260507070047 | 72 | 242 | 0.0 | 0.0 | 0.00 | 0.00 | 0.00 | 23 | 1011.1 |
| 20260507064546 | 72 | 231 | 0.0 | 1.0 | 0.00 | 0.00 | 0.00 | 23 | 1011.1 |
| 20260507063045 | 72 | 203 | 0.0 | 1.0 | 0.00 | 0.00 | 0.00 | 23 | 1011.2 |
| 20260507061545 | 72 | 240 | 0.0 | 2.0 | 0.00 | 0.00 | 0.00 | 22 | 1011.2 |
| 20260507060049 | 73 | 226 | 0.0 | 0.0 | 0.00 | 0.00 | 0.00 | 22 | 1011.2 |
| 20260507054604 | 74 | 237 | 0.0 | 2.0 | 0.00 | 0.00 | 0.00 | 21 | 1011.2 |
| 20260507053049 | 74 | 257 | 0.0 | 2.0 | 0.00 | 0.00 | 0.00 | 21 | 1011.1 |
| 20260507051543 | 75 | 224 | 0.0 | 4.0 | 0.00 | 0.00 | 0.00 | 20 | 1011.1 |
| 20260507050042 | 75 | 250 | 0.0 | 4.0 | 0.00 | 0.00 | 0.00 | 20 | 1011.0 |
| 20260507044547 | 75 | 244 | 0.0 | 3.0 | 0.00 | 0.00 | 0.00 | 20 | 1010.9 |
| 20260507043044 | 75 | 233 | 0.0 | 3.0 | 0.00 | 0.00 | 0.00 | 20 | 1010.9 |
| 20260507041542 | 76 | 216 | 0.0 | 1.0 | 0.00 | 0.00 | 0.00 | 20 | 1010.7 |
| 20260507040041 | 76 | 235 | 0.0 | 0.0 | 0.00 | 0.00 | 0.00 | 21 | 1010.5 |
| 20260507034542 | 76 | 226 | 0.0 | 0.0 | 0.00 | 0.00 | 0.00 | 21 | 1010.4 |
| 20260507033042 | 77 | 231 | 0.0 | 0.0 | 0.00 | 0.00 | 0.00 | 20 | 1010.2 |
| 20260507031546 | 78 | 220 | 0.0 | 1.0 | 0.00 | 0.00 | 0.00 | 19 | 1010.1 |
| 20260507030048 | 79 | 214 | 0.0 | 0.0 | 0.00 | 0.00 | 0.00 | 19 | 1009.9 |
| 20260507024542 | 80 | 221 | 0.0 | 0.0 | 0.00 | 0.00 | 0.00 | 19 | 1009.8 |
| 20260507023036 | 80 | 230 | 0.0 | 2.0 | 0.00 | 0.00 | 0.00 | 18 | 1009.6 |
| 20260507021536 | 81 | 200 | 0.0 | 3.0 | 0.00 | 0.00 | 0.00 | 18 | 1009.4 |
| 20260507020034 | 82 | 204 | 0.0 | 0.0 | 0.00 | 0.00 | 0.00 | 17 | 1009.3 |